sensor_id;sensor_type;location;lat;lon;timestamp;pressure;altitude;pressure_sealevel;temperature;humidity
60355;BME280;46198;51.464;-0.066;2022-08-01T00:00:09;101757.66;;;20.08;76.58
60355;BME280;46198;51.464;-0.066;2022-08-01T00:02:37;101761.22;;;20.08;75.90
60355;BME280;46198;51.464;-0.066;2022-08-01T00:05:07;101755.38;;;20.00;76.92
60355;BME280;46198;51.464;-0.066;2022-08-01T00:07:38;101750.94;;;19.99;76.45
60355;BME280;46198;51.464;-0.066;2022-08-01T00:10:09;101752.81;;;19.93;76.60
60355;BME280;46198;51.464;-0.066;2022-08-01T00:12:38;101754.28;;;20.01;75.72
60355;BME280;46198;51.464;-0.066;2022-08-01T00:15:08;101749.78;;;19.95;76.67
60355;BME280;46198;51.464;-0.066;2022-08-01T00:17:36;101748.59;;;19.85;76.81
60355;BME280;46198;51.464;-0.066;2022-08-01T00:20:07;101752.81;;;19.93;76.47
60355;BME280;46198;51.464;-0.066;2022-08-01T00:22:35;101750.66;;;19.95;75.96
60355;BME280;46198;51.464;-0.066;2022-08-01T00:25:06;101743.69;;;19.87;76.09
60355;BME280;46198;51.464;-0.066;2022-08-01T00:27:34;101748.03;;;19.83;76.91
60355;BME280;46198;51.464;-0.066;2022-08-01T00:30:04;101736.75;;;19.85;76.77
60355;BME280;46198;51.464;-0.066;2022-08-01T00:32:40;101735.81;;;19.74;76.09
60355;BME280;46198;51.464;-0.066;2022-08-01T00:35:08;101734.19;;;19.78;76.10
60355;BME280;46198;51.464;-0.066;2022-08-01T00:37:36;101735.97;;;19.89;74.73
60355;BME280;46198;51.464;-0.066;2022-08-01T00:40:07;101731.72;;;19.77;75.55
60355;BME280;46198;51.464;-0.066;2022-08-01T00:42:35;101736.66;;;19.75;75.72
60355;BME280;46198;51.464;-0.066;2022-08-01T00:45:09;101745.81;;;19.80;75.32
60355;BME280;46198;51.464;-0.066;2022-08-01T00:47:37;101751.00;;;19.77;75.78
60355;BME280;46198;51.464;-0.066;2022-08-01T00:50:07;101752.41;;;19.79;75.74
60355;BME280;46198;51.464;-0.066;2022-08-01T00:52:35;101744.91;;;19.75;75.97
60355;BME280;46198;51.464;-0.066;2022-08-01T00:55:07;101748.78;;;19.74;75.86
60355;BME280;46198;51.464;-0.066;2022-08-01T00:57:40;101744.91;;;19.75;75.99
60355;BME280;46198;51.464;-0.066;2022-08-01T01:00:29;101746.91;;;19.79;75.04
60355;BME280;46198;51.464;-0.066;2022-08-01T01:03:00;101744.19;;;19.84;75.04
60355;BME280;46198;51.464;-0.066;2022-08-01T01:05:29;101753.81;;;19.82;75.41
60355;BME280;46198;51.464;-0.066;2022-08-01T01:08:07;101751.31;;;19.80;75.72
60355;BME280;46198;51.464;-0.066;2022-08-01T01:10:45;101747.97;;;19.78;75.81
60355;BME280;46198;51.464;-0.066;2022-08-01T01:13:24;101757.88;;;19.74;76.67
60355;BME280;46198;51.464;-0.066;2022-08-01T01:15:57;101754.28;;;19.74;77.10
60355;BME280;46198;51.464;-0.066;2022-08-01T01:18:32;101760.47;;;19.64;77.50
60355;BME280;46198;51.464;-0.066;2022-08-01T01:21:07;101767.63;;;19.65;77.91
60355;BME280;46198;51.464;-0.066;2022-08-01T01:23:50;101767.72;;;19.70;77.01
60355;BME280;46198;51.464;-0.066;2022-08-01T01:26:30;101767.19;;;19.73;76.59
60355;BME280;46198;51.464;-0.066;2022-08-01T01:29:04;101766.50;;;19.61;77.91
60355;BME280;46198;51.464;-0.066;2022-08-01T01:31:42;101766.38;;;19.51;77.65
60355;BME280;46198;51.464;-0.066;2022-08-01T01:34:12;101756.50;;;19.55;77.14
60355;BME280;46198;51.464;-0.066;2022-08-01T01:36:43;101760.22;;;19.65;75.89
60355;BME280;46198;51.464;-0.066;2022-08-01T01:39:13;101767.09;;;19.63;76.29
60355;BME280;46198;51.464;-0.066;2022-08-01T01:41:42;101763.31;;;19.69;75.72
60355;BME280;46198;51.464;-0.066;2022-08-01T01:44:14;101766.38;;;19.51;77.23
60355;BME280;46198;51.464;-0.066;2022-08-01T01:46:44;101766.44;;;19.56;76.89
60355;BME280;46198;51.464;-0.066;2022-08-01T01:49:14;101766.50;;;19.61;76.18
60355;BME280;46198;51.464;-0.066;2022-08-01T01:51:46;101764.19;;;19.53;77.17
60355;BME280;46198;51.464;-0.066;2022-08-01T01:54:30;101766.19;;;19.57;76.24
60355;BME280;46198;51.464;-0.066;2022-08-01T01:57:02;101762.84;;;19.55;76.87
60355;BME280;46198;51.464;-0.066;2022-08-01T01:59:34;101764.31;;;19.63;75.37
60355;BME280;46198;51.464;-0.066;2022-08-01T02:02:05;101758.47;;;19.59;77.20
60355;BME280;46198;51.464;-0.066;2022-08-01T02:04:36;101759.34;;;19.60;77.27
60355;BME280;46198;51.464;-0.066;2022-08-01T02:07:07;101752.06;;;19.54;77.34
60355;BME280;46198;51.464;-0.066;2022-08-01T02:09:37;101749.84;;;19.51;77.18
60355;BME280;46198;51.464;-0.066;2022-08-01T02:12:10;101752.06;;;19.54;76.98
60355;BME280;46198;51.464;-0.066;2022-08-01T02:14:40;101750.41;;;19.53;77.54
60355;BME280;46198;51.464;-0.066;2022-08-01T02:17:10;101749.22;;;19.43;78.21
60355;BME280;46198;51.464;-0.066;2022-08-01T02:19:40;101746.19;;;19.45;78.07
60355;BME280;46198;51.464;-0.066;2022-08-01T02:22:10;101756.25;;;19.34;78.48
60355;BME280;46198;51.464;-0.066;2022-08-01T02:24:41;101757.28;;;19.28;79.17
60355;BME280;46198;51.464;-0.066;2022-08-01T02:27:12;101751.34;;;19.36;78.47
60355;BME280;46198;51.464;-0.066;2022-08-01T02:29:48;101756.78;;;19.31;78.29
60355;BME280;46198;51.464;-0.066;2022-08-01T02:32:23;101750.44;;;19.31;78.53
60355;BME280;46198;51.464;-0.066;2022-08-01T02:34:53;101757.28;;;19.28;78.26
60355;BME280;46198;51.464;-0.066;2022-08-01T02:37:26;101761.97;;;19.27;77.81
60355;BME280;46198;51.464;-0.066;2022-08-01T02:39:54;101757.34;;;19.33;78.14
60355;BME280;46198;51.464;-0.066;2022-08-01T02:42:26;101749.47;;;19.20;78.42
60355;BME280;46198;51.464;-0.066;2022-08-01T02:44:57;101745.97;;;19.24;78.54
60355;BME280;46198;51.464;-0.066;2022-08-01T02:47:26;101745.31;;;19.17;79.29
60355;BME280;46198;51.464;-0.066;2022-08-01T02:49:56;101739.59;;;19.24;78.84
60355;BME280;46198;51.464;-0.066;2022-08-01T02:52:26;101734.09;;;19.24;78.95
60355;BME280;46198;51.464;-0.066;2022-08-01T02:54:56;101732.38;;;19.18;79.43
60355;BME280;46198;51.464;-0.066;2022-08-01T02:57:26;101741.00;;;19.04;80.53
60355;BME280;46198;51.464;-0.066;2022-08-01T03:00:17;101740.47;;;19.08;80.20
60355;BME280;46198;51.464;-0.066;2022-08-01T03:02:50;101741.66;;;19.12;80.27
60355;BME280;46198;51.464;-0.066;2022-08-01T03:05:22;101740.47;;;19.08;79.81
60355;BME280;46198;51.464;-0.066;2022-08-01T03:07:53;101733.41;;;19.12;79.10
60355;BME280;46198;51.464;-0.066;2022-08-01T03:10:30;101733.31;;;19.07;79.30
60355;BME280;46198;51.464;-0.066;2022-08-01T03:13:00;101733.44;;;18.95;81.05
60355;BME280;46198;51.464;-0.066;2022-08-01T03:15:31;101732.88;;;18.93;81.47
60355;BME280;46198;51.464;-0.066;2022-08-01T03:18:01;101734.88;;;18.97;79.18
60355;BME280;46198;51.464;-0.066;2022-08-01T03:20:30;101732.47;;;18.84;81.68
60355;BME280;46198;51.464;-0.066;2022-08-01T03:23:02;101727.97;;;18.78;82.32
60355;BME280;46198;51.464;-0.066;2022-08-01T03:25:31;101726.88;;;18.79;81.12
60355;BME280;46198;51.464;-0.066;2022-08-01T03:28:03;101729.53;;;18.74;82.47
60355;BME280;46198;51.464;-0.066;2022-08-01T03:30:35;101729.88;;;18.60;83.04
60355;BME280;46198;51.464;-0.066;2022-08-01T03:33:04;101737.63;;;18.64;82.36
60355;BME280;46198;51.464;-0.066;2022-08-01T03:35:34;101744.22;;;18.63;82.49
60355;BME280;46198;51.464;-0.066;2022-08-01T03:38:06;101741.97;;;18.59;82.27
60355;BME280;46198;51.464;-0.066;2022-08-01T03:40:46;101739.72;;;18.56;83.31
60355;BME280;46198;51.464;-0.066;2022-08-01T03:43:20;101741.63;;;18.56;83.05
60355;BME280;46198;51.464;-0.066;2022-08-01T03:45:52;101741.53;;;18.51;83.01
60355;BME280;46198;51.464;-0.066;2022-08-01T03:48:27;101742.56;;;18.45;84.74
60355;BME280;46198;51.464;-0.066;2022-08-01T03:50:58;101747.81;;;18.46;84.11
60355;BME280;46198;51.464;-0.066;2022-08-01T03:53:30;101743.38;;;18.45;83.47
60355;BME280;46198;51.464;-0.066;2022-08-01T03:56:00;101743.81;;;18.37;85.10
60355;BME280;46198;51.464;-0.066;2022-08-01T03:58:29;101747.47;;;18.43;84.62
60355;BME280;46198;51.464;-0.066;2022-08-01T04:01:01;101754.88;;;18.42;84.86
60355;BME280;46198;51.464;-0.066;2022-08-01T04:03:30;101755.97;;;18.41;85.68
60355;BME280;46198;51.464;-0.066;2022-08-01T04:06:08;101754.75;;;18.49;84.60
60355;BME280;46198;51.464;-0.066;2022-08-01T04:08:38;101754.47;;;18.50;84.30
60355;BME280;46198;51.464;-0.066;2022-08-01T04:11:09;101756.06;;;18.46;83.97
60355;BME280;46198;51.464;-0.066;2022-08-01T04:13:37;101744.06;;;18.52;84.58
60355;BME280;46198;51.464;-0.066;2022-08-01T04:16:11;101742.97;;;18.53;83.71
60355;BME280;46198;51.464;-0.066;2022-08-01T04:18:39;101732.38;;;18.45;84.66
60355;BME280;46198;51.464;-0.066;2022-08-01T04:21:07;101729.91;;;18.44;85.47
60355;BME280;46198;51.464;-0.066;2022-08-01T04:23:36;101729.91;;;18.44;85.73
60355;BME280;46198;51.464;-0.066;2022-08-01T04:26:07;101729.22;;;18.36;86.34
60355;BME280;46198;51.464;-0.066;2022-08-01T04:28:36;101745.50;;;18.38;85.90
60355;BME280;46198;51.464;-0.066;2022-08-01T04:31:08;101739.22;;;18.43;85.50
60355;BME280;46198;51.464;-0.066;2022-08-01T04:33:42;101740.63;;;18.45;84.01
60355;BME280;46198;51.464;-0.066;2022-08-01T04:36:12;101744.97;;;18.41;84.50
60355;BME280;46198;51.464;-0.066;2022-08-01T04:38:45;101743.25;;;18.35;86.42
60355;BME280;46198;51.464;-0.066;2022-08-01T04:41:14;101742.38;;;18.34;86.73
60355;BME280;46198;51.464;-0.066;2022-08-01T04:43:43;101738.56;;;18.35;86.59
60355;BME280;46198;51.464;-0.066;2022-08-01T04:46:11;101734.56;;;18.43;84.08
60355;BME280;46198;51.464;-0.066;2022-08-01T04:48:42;101737.25;;;18.38;85.58
60355;BME280;46198;51.464;-0.066;2022-08-01T04:51:12;101739.63;;;18.34;86.73
60355;BME280;46198;51.464;-0.066;2022-08-01T04:53:42;101747.31;;;18.32;87.20
60355;BME280;46198;51.464;-0.066;2022-08-01T04:56:10;101750.41;;;18.36;86.10
60355;BME280;46198;51.464;-0.066;2022-08-01T04:58:40;101750.72;;;18.39;84.21
60355;BME280;46198;51.464;-0.066;2022-08-01T05:01:09;101760.38;;;18.42;84.21
60355;BME280;46198;51.464;-0.066;2022-08-01T05:03:37;101759.06;;;18.45;84.20
60355;BME280;46198;51.464;-0.066;2022-08-01T05:06:07;101751.06;;;18.43;85.78
60355;BME280;46198;51.464;-0.066;2022-08-01T05:08:35;101764.06;;;18.48;85.37
60355;BME280;46198;51.464;-0.066;2022-08-01T05:11:04;101771.38;;;18.42;86.65
60355;BME280;46198;51.464;-0.066;2022-08-01T05:13:32;101771.97;;;18.44;85.85
60355;BME280;46198;51.464;-0.066;2022-08-01T05:16:00;101775.56;;;18.45;84.91
60355;BME280;46198;51.464;-0.066;2022-08-01T05:18:30;101782.38;;;18.42;87.27
60355;BME280;46198;51.464;-0.066;2022-08-01T05:20:58;101779.63;;;18.42;87.07
60355;BME280;46198;51.464;-0.066;2022-08-01T05:23:27;101774.53;;;18.34;88.28
60355;BME280;46198;51.464;-0.066;2022-08-01T05:26:09;101775.22;;;18.41;87.33
60355;BME280;46198;51.464;-0.066;2022-08-01T05:28:40;101776.38;;;18.45;87.24
60355;BME280;46198;51.464;-0.066;2022-08-01T05:31:08;101771.97;;;18.44;87.25
60355;BME280;46198;51.464;-0.066;2022-08-01T05:33:37;101781.31;;;18.43;87.28
60355;BME280;46198;51.464;-0.066;2022-08-01T05:36:05;101785.31;;;18.52;86.34
60355;BME280;46198;51.464;-0.066;2022-08-01T05:38:34;101775.97;;;18.53;85.81
60355;BME280;46198;51.464;-0.066;2022-08-01T05:41:02;101778.06;;;18.46;88.08
60355;BME280;46198;51.464;-0.066;2022-08-01T05:43:30;101778.41;;;18.50;87.49
60355;BME280;46198;51.464;-0.066;2022-08-01T05:45:59;101776.75;;;18.49;87.76
60355;BME280;46198;51.464;-0.066;2022-08-01T05:48:28;101771.88;;;18.56;86.47
60355;BME280;46198;51.464;-0.066;2022-08-01T05:50:57;101779.41;;;18.60;87.40
60355;BME280;46198;51.464;-0.066;2022-08-01T05:53:25;101775.53;;;18.61;87.67
60355;BME280;46198;51.464;-0.066;2022-08-01T05:55:55;101771.22;;;18.66;87.91
60355;BME280;46198;51.464;-0.066;2022-08-01T05:58:23;101786.72;;;18.72;85.61
60355;BME280;46198;51.464;-0.066;2022-08-01T06:00:51;101791.03;;;18.51;88.21
60355;BME280;46198;51.464;-0.066;2022-08-01T06:03:19;101782.38;;;18.59;87.78
60355;BME280;46198;51.464;-0.066;2022-08-01T06:05:48;101790.56;;;18.71;86.57
60355;BME280;46198;51.464;-0.066;2022-08-01T06:08:16;101787.22;;;18.69;87.73
60355;BME280;46198;51.464;-0.066;2022-08-01T06:10:44;101785.41;;;18.74;87.48
60355;BME280;46198;51.464;-0.066;2022-08-01T06:13:14;101783.84;;;18.78;86.56
60355;BME280;46198;51.464;-0.066;2022-08-01T06:15:42;101790.75;;;18.81;87.02
60355;BME280;46198;51.464;-0.066;2022-08-01T06:18:10;101795.25;;;18.87;86.73
60355;BME280;46198;51.464;-0.066;2022-08-01T06:20:38;101791.41;;;18.88;86.75
60355;BME280;46198;51.464;-0.066;2022-08-01T06:23:07;101787.97;;;18.98;86.44
60355;BME280;46198;51.464;-0.066;2022-08-01T06:25:55;101789.06;;;18.97;85.90
60355;BME280;46198;51.464;-0.066;2022-08-01T06:28:26;101785.63;;;19.07;85.39
60355;BME280;46198;51.464;-0.066;2022-08-01T06:30:54;101787.97;;;18.98;86.14
60355;BME280;46198;51.464;-0.066;2022-08-01T06:33:22;101785.56;;;19.01;85.89
60355;BME280;46198;51.464;-0.066;2022-08-01T06:35:50;101782.94;;;19.12;85.90
60355;BME280;46198;51.464;-0.066;2022-08-01T06:38:18;101780.88;;;19.02;86.05
60355;BME280;46198;51.464;-0.066;2022-08-01T06:40:47;101787.34;;;19.13;85.04
60355;BME280;46198;51.464;-0.066;2022-08-01T06:43:15;101777.25;;;19.18;85.03
60355;BME280;46198;51.464;-0.066;2022-08-01T06:45:44;101785.03;;;19.04;85.25
60355;BME280;46198;51.464;-0.066;2022-08-01T06:48:13;101793.38;;;19.10;85.86
60355;BME280;46198;51.464;-0.066;2022-08-01T06:50:41;101788.63;;;19.05;85.86
60355;BME280;46198;51.464;-0.066;2022-08-01T06:53:09;101794.03;;;19.17;84.92
60355;BME280;46198;51.464;-0.066;2022-08-01T06:55:37;101795.69;;;19.18;84.94
60355;BME280;46198;51.464;-0.066;2022-08-01T06:58:06;101798.38;;;19.13;85.10
60355;BME280;46198;51.464;-0.066;2022-08-01T07:00:34;101794.03;;;19.17;84.53
60355;BME280;46198;51.464;-0.066;2022-08-01T07:03:04;101799.19;;;19.13;84.96
60355;BME280;46198;51.464;-0.066;2022-08-01T07:05:32;101804.03;;;19.23;84.30
60355;BME280;46198;51.464;-0.066;2022-08-01T07:08:00;101802.00;;;19.35;83.01
60355;BME280;46198;51.464;-0.066;2022-08-01T07:10:28;101803.59;;;19.31;83.81
60355;BME280;46198;51.464;-0.066;2022-08-01T07:12:57;101799.34;;;19.23;84.18
60355;BME280;46198;51.464;-0.066;2022-08-01T07:15:25;101796.34;;;19.25;84.51
60355;BME280;46198;51.464;-0.066;2022-08-01T07:17:54;101800.69;;;19.21;84.50
60355;BME280;46198;51.464;-0.066;2022-08-01T07:20:25;101801.28;;;19.23;84.80
60355;BME280;46198;51.464;-0.066;2022-08-01T07:22:53;101801.16;;;19.35;84.25
60355;BME280;46198;51.464;-0.066;2022-08-01T07:25:22;101806.66;;;19.35;84.03
60355;BME280;46198;51.464;-0.066;2022-08-01T07:27:50;101808.97;;;19.43;83.41
60355;BME280;46198;51.464;-0.066;2022-08-01T07:30:18;101808.78;;;19.49;82.40
60355;BME280;46198;51.464;-0.066;2022-08-01T07:32:47;101814.28;;;19.49;83.12
60355;BME280;46198;51.464;-0.066;2022-08-01T07:35:17;101811.28;;;19.51;82.99
60355;BME280;46198;51.464;-0.066;2022-08-01T07:37:46;101822.28;;;19.68;82.82
60355;BME280;46198;51.464;-0.066;2022-08-01T07:40:19;101826.44;;;19.70;82.25
60355;BME280;46198;51.464;-0.066;2022-08-01T07:43:16;101816.91;;;19.61;82.14
60355;BME280;46198;51.464;-0.066;2022-08-01T07:45:46;101815.91;;;19.67;82.27
60355;BME280;46198;51.464;-0.066;2022-08-01T07:48:15;101818.94;;;19.66;81.82
60355;BME280;46198;51.464;-0.066;2022-08-01T07:50:44;101820.06;;;19.70;81.41
60355;BME280;46198;51.464;-0.066;2022-08-01T07:53:15;101818.72;;;19.73;82.04
60355;BME280;46198;51.464;-0.066;2022-08-01T07:55:43;101824.16;;;19.89;81.55
60355;BME280;46198;51.464;-0.066;2022-08-01T07:58:13;101818.16;;;19.92;80.88
60355;BME280;46198;51.464;-0.066;2022-08-01T08:00:41;101825.38;;;19.99;80.50
60355;BME280;46198;51.464;-0.066;2022-08-01T08:03:10;101811.59;;;19.99;80.30
60355;BME280;46198;51.464;-0.066;2022-08-01T08:05:38;101820.66;;;20.21;79.81
60355;BME280;46198;51.464;-0.066;2022-08-01T08:08:26;101819.09;;;20.30;78.00
60355;BME280;46198;51.464;-0.066;2022-08-01T08:10:54;101825.56;;;20.46;78.05
60355;BME280;46198;51.464;-0.066;2022-08-01T08:13:23;101833.13;;;20.29;77.81
60355;BME280;46198;51.464;-0.066;2022-08-01T08:15:51;101826.31;;;20.36;77.23
60355;BME280;46198;51.464;-0.066;2022-08-01T08:18:19;101824.38;;;20.37;77.63
60355;BME280;46198;51.464;-0.066;2022-08-01T08:20:47;101830.59;;;20.22;78.14
60355;BME280;46198;51.464;-0.066;2022-08-01T08:23:15;101833.16;;;20.56;77.79
60355;BME280;46198;51.464;-0.066;2022-08-01T08:26:11;101833.28;;;20.71;76.14
60355;BME280;46198;51.464;-0.066;2022-08-01T08:28:39;101832.31;;;20.55;76.24
60355;BME280;46198;51.464;-0.066;2022-08-01T08:31:07;101833.78;;;20.63;76.07
60355;BME280;46198;51.464;-0.066;2022-08-01T08:33:51;101829.38;;;20.67;76.49
60355;BME280;46198;51.464;-0.066;2022-08-01T08:36:19;101831.59;;;20.70;76.00
60355;BME280;46198;51.464;-0.066;2022-08-01T08:38:57;101829.81;;;20.54;75.75
60355;BME280;46198;51.464;-0.066;2022-08-01T08:41:30;101824.47;;;20.74;73.71
60355;BME280;46198;51.464;-0.066;2022-08-01T08:44:05;101832.19;;;20.72;74.11
60355;BME280;46198;51.464;-0.066;2022-08-01T08:46:45;101831.94;;;20.79;75.10
60355;BME280;46198;51.464;-0.066;2022-08-01T08:49:17;101832.59;;;20.91;73.12
60355;BME280;46198;51.464;-0.066;2022-08-01T08:51:48;101830.44;;;20.98;73.79
60355;BME280;46198;51.464;-0.066;2022-08-01T08:54:20;101826.34;;;21.06;72.54
60355;BME280;46198;51.464;-0.066;2022-08-01T08:56:59;101827.22;;;21.17;72.83
60355;BME280;46198;51.464;-0.066;2022-08-01T08:59:30;101826.09;;;21.08;71.78
60355;BME280;46198;51.464;-0.066;2022-08-01T09:01:59;101820.97;;;21.32;71.28
60355;BME280;46198;51.464;-0.066;2022-08-01T09:04:27;101825.94;;;21.30;71.17
60355;BME280;46198;51.464;-0.066;2022-08-01T09:06:55;101817.59;;;21.19;72.27
60355;BME280;46198;51.464;-0.066;2022-08-01T09:09:23;101820.44;;;21.35;70.51
60355;BME280;46198;51.464;-0.066;2022-08-01T09:11:54;101825.97;;;21.35;70.37
60355;BME280;46198;51.464;-0.066;2022-08-01T09:14:26;101818.84;;;21.39;71.75
60355;BME280;46198;51.464;-0.066;2022-08-01T09:17:03;101826.09;;;21.50;69.35
60355;BME280;46198;51.464;-0.066;2022-08-01T09:19:37;101827.13;;;21.44;69.81
60355;BME280;46198;51.464;-0.066;2022-08-01T09:22:08;101828.13;;;21.28;69.17
60355;BME280;46198;51.464;-0.066;2022-08-01T09:24:38;101825.50;;;21.48;68.78
60355;BME280;46198;51.464;-0.066;2022-08-01T09:27:19;101834.63;;;21.49;70.73
60355;BME280;46198;51.464;-0.066;2022-08-01T09:29:53;101828.34;;;21.68;68.82
60355;BME280;46198;51.464;-0.066;2022-08-01T09:32:30;101831.44;;;21.77;66.81
60355;BME280;46198;51.464;-0.066;2022-08-01T09:35:23;101828.88;;;21.60;67.18
60355;BME280;46198;51.464;-0.066;2022-08-01T09:38:15;101831.13;;;21.68;65.64
60355;BME280;46198;51.464;-0.066;2022-08-01T09:40:48;101830.94;;;21.90;65.02
60355;BME280;46198;51.464;-0.066;2022-08-01T09:43:17;101821.03;;;22.05;62.98
60355;BME280;46198;51.464;-0.066;2022-08-01T09:45:48;101826.59;;;22.25;66.16
60355;BME280;46198;51.464;-0.066;2022-08-01T09:48:20;101828.41;;;21.84;61.72
60355;BME280;46198;51.464;-0.066;2022-08-01T09:50:56;101829.34;;;22.15;61.72
60355;BME280;46198;51.464;-0.066;2022-08-01T09:53:40;101824.06;;;22.13;62.19
60355;BME280;46198;51.464;-0.066;2022-08-01T09:56:18;101821.66;;;22.32;64.01
60355;BME280;46198;51.464;-0.066;2022-08-01T09:58:51;101824.97;;;22.40;60.96
60355;BME280;46198;51.464;-0.066;2022-08-01T10:01:27;101826.91;;;22.34;62.66
60355;BME280;46198;51.464;-0.066;2022-08-01T10:04:05;101831.88;;;22.52;60.54
60355;BME280;46198;51.464;-0.066;2022-08-01T10:06:36;101834.91;;;22.25;60.30
60355;BME280;46198;51.464;-0.066;2022-08-01T10:09:05;101822.22;;;22.40;62.65
60355;BME280;46198;51.464;-0.066;2022-08-01T10:11:34;101826.09;;;22.69;63.29
60355;BME280;46198;51.464;-0.066;2022-08-01T10:14:07;101816.69;;;22.81;60.40
60355;BME280;46198;51.464;-0.066;2022-08-01T10:16:38;101821.13;;;22.97;58.68
60355;BME280;46198;51.464;-0.066;2022-08-01T10:19:07;101817.50;;;22.81;57.56
60355;BME280;46198;51.464;-0.066;2022-08-01T10:21:41;101821.34;;;22.90;58.31
60355;BME280;46198;51.464;-0.066;2022-08-01T10:24:26;101823.06;;;22.96;57.72
60355;BME280;46198;51.464;-0.066;2022-08-01T10:26:59;101823.03;;;22.86;58.28
60355;BME280;46198;51.464;-0.066;2022-08-01T10:29:41;101824.97;;;22.86;57.49
60355;BME280;46198;51.464;-0.066;2022-08-01T10:32:27;101825.75;;;23.32;59.17
60355;BME280;46198;51.464;-0.066;2022-08-01T10:34:55;101815.69;;;23.57;56.13
60355;BME280;46198;51.464;-0.066;2022-08-01T10:37:24;101811.31;;;23.35;57.55
60355;BME280;46198;51.464;-0.066;2022-08-01T10:39:53;101812.16;;;23.36;57.01
60355;BME280;46198;51.464;-0.066;2022-08-01T10:42:44;101818.41;;;23.67;55.77
60355;BME280;46198;51.464;-0.066;2022-08-01T10:45:14;101817.69;;;24.01;54.78
60355;BME280;46198;51.464;-0.066;2022-08-01T10:47:50;101803.66;;;24.26;53.92
60355;BME280;46198;51.464;-0.066;2022-08-01T10:50:27;101798.56;;;24.44;53.97
60355;BME280;46198;51.464;-0.066;2022-08-01T10:53:12;101798.03;;;24.37;52.88
60355;BME280;46198;51.464;-0.066;2022-08-01T10:55:57;101794.81;;;24.24;53.68
60355;BME280;46198;51.464;-0.066;2022-08-01T10:58:30;101800.88;;;24.26;54.63
60355;BME280;46198;51.464;-0.066;2022-08-01T11:01:14;101795.56;;;23.91;54.25
60355;BME280;46198;51.464;-0.066;2022-08-01T11:03:56;101790.91;;;24.25;53.17
60355;BME280;46198;51.464;-0.066;2022-08-01T11:06:40;101793.13;;;24.23;53.71
60355;BME280;46198;51.464;-0.066;2022-08-01T11:09:27;101788.50;;;24.48;54.24
60355;BME280;46198;51.464;-0.066;2022-08-01T11:12:08;101789.59;;;24.13;53.57
60355;BME280;46198;51.464;-0.066;2022-08-01T11:15:22;101787.84;;;24.27;54.49
60355;BME280;46198;51.464;-0.066;2022-08-01T11:18:01;101792.13;;;24.09;53.86
60355;BME280;46198;51.464;-0.066;2022-08-01T11:20:33;101783.25;;;24.07;54.52
60355;BME280;46198;51.464;-0.066;2022-08-01T11:23:18;101781.72;;;24.30;55.01
60355;BME280;46198;51.464;-0.066;2022-08-01T11:26:22;101777.03;;;24.89;52.88
60355;BME280;46198;51.464;-0.066;2022-08-01T11:29:18;101783.13;;;24.91;52.35
60355;BME280;46198;51.464;-0.066;2022-08-01T11:31:49;101776.31;;;25.02;52.26
60355;BME280;46198;51.464;-0.066;2022-08-01T11:34:18;101775.63;;;25.63;52.53
60355;BME280;46198;51.464;-0.066;2022-08-01T11:36:48;101769.81;;;25.41;50.17
60355;BME280;46198;51.464;-0.066;2022-08-01T11:39:26;101760.94;;;24.86;51.27
60355;BME280;46198;51.464;-0.066;2022-08-01T11:42:18;101769.94;;;25.02;51.75
60355;BME280;46198;51.464;-0.066;2022-08-01T11:44:51;101773.59;;;25.26;51.11
60355;BME280;46198;51.464;-0.066;2022-08-01T11:47:47;101769.22;;;25.44;50.79
60355;BME280;46198;51.464;-0.066;2022-08-01T11:50:33;101772.81;;;25.20;50.03
60355;BME280;46198;51.464;-0.066;2022-08-01T11:53:06;101760.75;;;25.06;50.77
60355;BME280;46198;51.464;-0.066;2022-08-01T11:55:37;101757.91;;;25.11;50.35
60355;BME280;46198;51.464;-0.066;2022-08-01T11:58:21;101767.03;;;25.17;50.39
60355;BME280;46198;51.464;-0.066;2022-08-01T12:00:59;101760.69;;;25.11;49.91
60355;BME280;46198;51.464;-0.066;2022-08-01T12:03:38;101768.69;;;25.18;49.44
60355;BME280;46198;51.464;-0.066;2022-08-01T12:06:12;101759.16;;;25.00;50.51
60355;BME280;46198;51.464;-0.066;2022-08-01T12:08:43;101749.81;;;25.15;49.52
60355;BME280;46198;51.464;-0.066;2022-08-01T12:11:18;101745.91;;;25.59;48.90
60355;BME280;46198;51.464;-0.066;2022-08-01T12:13:47;101744.25;;;26.34;48.25
60355;BME280;46198;51.464;-0.066;2022-08-01T12:16:19;101746.88;;;26.77;45.87
60355;BME280;46198;51.464;-0.066;2022-08-01T12:19:03;101750.97;;;25.95;47.24
60355;BME280;46198;51.464;-0.066;2022-08-01T12:25:27;101737.47;;;27.14;45.51
60355;BME280;46198;51.464;-0.066;2022-08-01T12:27:58;101734.50;;;27.24;44.93
60355;BME280;46198;51.464;-0.066;2022-08-01T12:30:32;101736.06;;;27.16;44.91
60355;BME280;46198;51.464;-0.066;2022-08-01T12:33:03;101730.78;;;26.87;44.99
60355;BME280;46198;51.464;-0.066;2022-08-01T12:35:37;101731.28;;;27.03;45.01
60355;BME280;46198;51.464;-0.066;2022-08-01T12:38:08;101733.84;;;26.39;45.58
60355;BME280;46198;51.464;-0.066;2022-08-01T12:40:45;101745.88;;;26.53;45.56
60355;BME280;46198;51.464;-0.066;2022-08-01T12:43:20;101732.47;;;26.23;47.38
60355;BME280;46198;51.464;-0.066;2022-08-01T12:45:57;101727.88;;;26.13;46.54
60355;BME280;46198;51.464;-0.066;2022-08-01T12:48:27;101732.53;;;26.18;47.06
60355;BME280;46198;51.464;-0.066;2022-08-01T12:50:56;101724.19;;;26.18;48.79
60355;BME280;46198;51.464;-0.066;2022-08-01T12:53:28;101720.16;;;25.91;47.50
60355;BME280;46198;51.464;-0.066;2022-08-01T12:56:09;101732.56;;;25.80;47.10
60355;BME280;46198;51.464;-0.066;2022-08-01T12:58:38;101721.38;;;25.85;48.53
60355;BME280;46198;51.464;-0.066;2022-08-01T13:01:08;101724.66;;;25.49;48.67
60355;BME280;46198;51.464;-0.066;2022-08-01T13:03:38;101730.22;;;25.49;48.13
60355;BME280;46198;51.464;-0.066;2022-08-01T13:06:11;101728.75;;;25.33;48.42
60355;BME280;46198;51.464;-0.066;2022-08-01T13:08:43;101724.19;;;25.61;48.38
60355;BME280;46198;51.464;-0.066;2022-08-01T13:11:15;101718.44;;;25.76;48.05